createdAt,value
2023-01-08T12:19:45.434Z,101627.48
2023-01-08T12:22:12.296Z,101619.83
2023-01-08T12:24:48.537Z,101621.29
2023-01-08T12:27:56.456Z,101618.99
2023-01-08T12:30:36.597Z,101622.76
2023-01-08T12:33:12.671Z,101621.11
2023-01-08T12:35:41.713Z,101619.06
2023-01-08T12:38:13.212Z,101615.30
2023-01-08T12:40:44.087Z,101614.59
2023-01-08T12:43:18.994Z,101617.57
2023-01-08T12:45:46.951Z,101608.16
2023-01-08T12:48:24.958Z,101608.44
2023-01-08T12:51:00.036Z,101603.58
2023-01-08T12:53:44.224Z,101608.27
2023-01-08T12:56:49.146Z,101599.86
2023-01-08T12:59:30.425Z,101606.46
2023-01-08T13:02:34.563Z,101606.74
2023-01-08T13:05:25.990Z,101605.50
2023-01-08T13:07:54.663Z,101604.17
2023-01-08T13:10:27.546Z,101600.91
2023-01-08T13:12:55.515Z,101599.95
2023-01-08T13:15:26.194Z,101607.86
2023-01-08T13:18:07.396Z,101607.06
2023-01-08T13:20:34.314Z,101605.42
2023-01-08T13:23:02.938Z,101602.40
2023-01-08T13:25:37.180Z,101608.05
2023-01-08T13:28:22.935Z,101606.69
2023-01-08T13:30:50.117Z,101606.40
2023-01-08T13:33:35.411Z,101607.95
2023-01-08T13:36:30.444Z,101603.71
2023-01-08T13:39:06.754Z,101609.06
2023-01-08T13:41:35.273Z,101611.27
2023-01-08T13:44:04.460Z,101612.74
2023-01-08T13:46:36.514Z,101614.08
2023-01-08T13:49:23.801Z,101612.33
2023-01-08T13:51:50.732Z,101614.60
2023-01-08T13:54:21.133Z,101612.70
2023-01-08T13:56:49.682Z,101614.48
2023-01-08T13:59:21.199Z,101618.84
2023-01-08T14:01:55.232Z,101616.63
2023-01-08T14:04:23.170Z,101618.33
2023-01-08T14:06:50.249Z,101610.19
2023-01-08T14:09:23.719Z,101616.58
2023-01-08T14:11:55.930Z,101613.57
2023-01-08T14:14:23.223Z,101607.42
2023-01-08T14:16:51.665Z,101608.02
2023-01-08T14:19:23.504Z,101607.33
2023-01-08T14:21:58.136Z,101601.57
2023-01-08T14:24:25.488Z,101601.84
2023-01-08T14:26:53.300Z,101601.44
2023-01-08T14:29:21.849Z,101599.73
2023-01-08T14:31:52.199Z,101595.95
2023-01-08T14:34:20.203Z,101596.46
2023-01-08T14:36:47.041Z,101596.36
2023-01-08T14:39:22.187Z,101600.11
2023-01-08T14:42:07.743Z,101593.80
2023-01-08T14:44:40.461Z,101594.02
2023-01-08T14:47:17.411Z,101595.34
2023-01-08T14:49:47.884Z,101594.88
2023-01-08T14:52:18.382Z,101594.20
2023-01-08T14:54:45.561Z,101591.81
2023-01-08T14:57:12.506Z,101587.48
2023-01-08T14:59:39.308Z,101588.27
2023-01-08T15:02:15.492Z,101588.94
2023-01-08T15:04:42.554Z,101586.14
2023-01-08T15:07:19.135Z,101581.72
2023-01-08T15:09:55.313Z,101582.25
2023-01-08T15:12:24.500Z,101588.27
2023-01-08T15:14:51.529Z,101584.60
2023-01-08T15:17:19.816Z,101590.01
2023-01-08T15:19:54.609Z,101594.91
2023-01-08T15:22:24.036Z,101590.01
2023-01-08T15:25:01.801Z,101589.35
2023-01-08T15:27:29.979Z,101589.19
2023-01-08T15:30:00.432Z,101587.59
2023-01-08T15:32:32.765Z,101583.20
2023-01-08T15:34:59.854Z,101588.27
2023-01-08T15:37:26.905Z,101582.68
2023-01-08T15:39:53.854Z,101582.00
2023-01-08T15:42:41.681Z,101584.12
2023-01-08T15:45:19.591Z,101586.61
2023-01-08T15:47:46.640Z,101585.39
2023-01-08T15:50:13.570Z,101584.52
2023-01-08T15:52:41.726Z,101577.38
2023-01-08T15:55:15.672Z,101576.68
2023-01-08T15:57:42.503Z,101582.73
2023-01-08T16:00:12.044Z,101579.06
2023-01-08T16:02:46.279Z,101579.52
2023-01-08T18:21:45.323Z,101590.42
2023-01-08T18:24:12.476Z,101598.67
2023-01-08T18:26:39.382Z,101599.31
2023-01-08T18:29:06.295Z,101606.23
2023-01-08T18:31:33.298Z,101601.33
2023-01-08T18:34:00.867Z,101606.86
2023-01-08T18:36:27.998Z,101605.98
2023-01-08T18:38:57.107Z,101609.14
2023-01-08T18:41:42.587Z,101609.08
2023-01-08T18:44:10.281Z,101611.55
2023-01-08T18:46:37.507Z,101618.04
2023-01-08T18:49:04.962Z,101618.44
2023-01-08T18:51:32.113Z,101614.54
2023-01-08T18:53:58.914Z,101615.77
2023-01-08T18:56:30.689Z,101624.27
2023-01-08T18:58:57.529Z,101620.55
2023-01-08T19:01:24.805Z,101619.13
2023-01-08T19:03:52.098Z,101618.15
2023-01-08T19:06:19.088Z,101617.39
2023-01-08T19:08:45.980Z,101622.64
2023-01-08T19:11:13.172Z,101614.84
2023-01-08T19:13:40.436Z,101614.83
2023-01-08T19:16:09.063Z,101609.64
2023-01-08T19:18:36.186Z,101611.77
2023-01-08T19:21:03.373Z,101607.59
2023-01-08T19:23:30.897Z,101607.10
2023-01-08T19:25:58.055Z,101611.32
2023-01-08T19:28:24.949Z,101618.31
2023-01-08T19:30:56.227Z,101615.91
2023-01-08T19:33:23.178Z,101620.30
2023-01-08T19:35:50.180Z,101619.30
2023-01-08T19:38:17.682Z,101613.45
2023-01-08T19:40:44.594Z,101613.95
2023-01-08T19:43:31.437Z,101610.27
2023-01-08T19:46:04.867Z,101611.38
2023-01-08T19:48:32.368Z,101613.33
2023-01-08T19:50:59.645Z,101608.51
2023-01-08T19:53:26.611Z,101607.34
2023-01-08T19:55:53.636Z,101596.13
2023-01-08T19:58:23.658Z,101597.23
2023-01-08T20:00:50.652Z,101596.38
2023-01-08T20:03:23.685Z,101598.36
2023-01-08T20:05:50.709Z,101595.88
2023-01-08T20:08:18.097Z,101602.58
2023-01-08T20:10:45.256Z,101601.77
2023-01-08T20:13:12.471Z,101597.75
2023-01-08T20:15:39.540Z,101599.95
2023-01-08T20:18:06.382Z,101598.55
2023-01-08T20:20:33.172Z,101597.58
2023-01-08T20:23:00.045Z,101598.98
2023-01-08T20:25:27.114Z,101591.66
2023-01-08T20:27:54.263Z,101589.21
2023-01-08T20:30:21.107Z,101589.02
2023-01-08T20:32:47.872Z,101586.18
2023-01-08T20:35:14.693Z,101588.66
2023-01-08T20:37:41.841Z,101585.89
2023-01-08T20:40:09.360Z,101586.88
2023-01-08T20:42:36.249Z,101585.11
2023-01-08T20:45:03.089Z,101581.27
2023-01-08T20:47:30.067Z,101584.33
2023-01-08T20:49:56.897Z,101584.79
2023-01-08T20:52:23.664Z,101584.91
2023-01-08T20:54:53.011Z,101575.45
2023-01-08T20:57:20.267Z,101573.70
2023-01-08T20:59:47.251Z,101569.19
2023-01-08T21:02:14.326Z,101571.03
2023-01-08T21:04:41.920Z,101566.45
2023-01-08T21:07:09.200Z,101569.98
2023-01-08T21:09:36.059Z,101576.71
2023-01-08T21:12:02.992Z,101578.09
2023-01-08T21:14:29.832Z,101573.89
2023-01-08T21:16:56.868Z,101578.21
2023-01-08T21:19:23.704Z,101576.41
2023-01-08T21:21:50.727Z,101577.10
2023-01-08T21:24:17.685Z,101568.71
2023-01-08T21:26:44.660Z,101567.73
2023-01-08T21:29:11.397Z,101563.03
2023-01-08T21:31:38.993Z,101568.19
2023-01-08T21:34:06.332Z,101579.52
2023-01-08T21:36:33.258Z,101581.11
2023-01-08T21:39:01.058Z,101583.95
2023-01-08T21:41:47.241Z,101586.18
2023-01-08T21:44:34.923Z,101578.65
2023-01-08T21:47:02.045Z,101574.59
2023-01-08T21:49:29.217Z,101570.11
2023-01-08T21:52:15.024Z,101574.39
2023-01-08T21:54:42.095Z,101572.45
2023-01-08T21:57:09.414Z,101569.47
2023-01-08T21:59:36.298Z,101572.30
2023-01-08T22:02:03.546Z,101564.77
2023-01-08T22:04:30.465Z,101566.01
2023-01-08T22:06:57.501Z,101559.95
2023-01-08T22:09:24.439Z,101567.08
2023-01-08T22:11:51.384Z,101563.98
2023-01-08T22:14:18.244Z,101557.84
2023-01-08T22:16:45.069Z,101553.29
2023-01-08T22:19:11.931Z,101543.58
2023-01-08T22:21:39.063Z,101540.83
2023-01-08T22:24:06.665Z,101540.30
2023-01-08T22:26:35.243Z,101542.25
2023-01-08T22:29:03.322Z,101546.81
2023-01-08T22:31:30.374Z,101539.14
2023-01-08T22:33:57.371Z,101530.64
2023-01-08T22:36:24.289Z,101527.41
2023-01-08T22:38:51.108Z,101529.72
2023-01-08T22:41:21.120Z,101529.30
2023-01-08T22:43:48.120Z,101535.73
2023-01-08T22:46:16.386Z,101537.49
2023-01-08T22:48:43.721Z,101537.30
2023-01-08T22:51:10.810Z,101531.18
2023-01-08T22:53:37.620Z,101536.61
2023-01-08T22:56:12.276Z,101527.83
2023-01-08T22:58:40.620Z,101524.58
2023-01-08T23:01:15.152Z,101520.98
2023-01-08T23:03:44.181Z,101514.14
2023-01-08T23:06:14.698Z,101513.42
2023-01-08T23:08:42.152Z,101508.13
2023-01-08T23:11:09.825Z,101509.55
2023-01-08T23:13:36.914Z,101510.79
2023-01-08T23:16:04.637Z,101503.35
2023-01-08T23:18:31.425Z,101504.73
2023-01-08T23:21:06.331Z,101494.73
2023-01-08T23:23:33.248Z,101493.64
2023-01-08T23:26:07.952Z,101496.00
2023-01-08T23:28:34.788Z,101492.89
2023-01-08T23:31:01.566Z,101485.15
2023-01-08T23:33:28.320Z,101476.60
2023-01-08T23:35:55.231Z,101470.27
2023-01-08T23:38:22.075Z,101474.36
2023-01-08T23:40:48.956Z,101471.12
2023-01-08T23:43:15.781Z,101469.83
2023-01-08T23:45:42.564Z,101478.14
2023-01-08T23:48:09.467Z,101478.25
2023-01-08T23:50:36.269Z,101475.19
2023-01-08T23:53:03.331Z,101478.98
2023-01-08T23:55:30.149Z,101482.41
2023-01-08T23:57:57.128Z,101485.88
